Time;durP1;ratioP1;P1;durP2;ratioP2;P2;SDS_P1;SDS_P2;PMS_P1;PMS_P2;Temp;Humidity;BMP_temperature;BMP_pressure;BME280_temperature;BME280_humidity;BME280_pressure;Samples;Min_cycle;Max_cycle;Signal;HPM_P1;HPM_P2
2022/05/01 00:00:34;;;;;;;9.80;9.50;;;;;;;9.79;80.40;101754.88;5116810;28;20582;-70
2022/05/01 00:03:00;;;;;;;10.40;9.80;;;;;;;9.80;80.22;101757.44;5117062;28;20177;-70
2022/05/01 00:05:27;;;;;;;10.30;9.80;;;;;;;9.79;80.08;101754.88;5116734;28;20203;-70
2022/05/01 00:07:53;;;;;;;10.07;9.47;;;;;;;9.80;80.20;101756.56;5116861;28;20209;-70
2022/05/01 00:10:19;;;;;;;10.53;9.67;;;;;;;9.80;80.24;101753.97;5116651;28;20189;-70
2022/05/01 00:12:46;;;;;;;9.03;8.53;;;;;;;9.83;79.94;101754.75;5117238;28;20550;-70
2022/05/01 00:15:12;;;;;;;8.97;8.67;;;;;;;9.81;80.11;101756.53;5116583;28;20657;-70
2022/05/01 00:17:39;;;;;;;8.60;8.20;;;;;;;9.81;80.05;101751.31;5116398;28;20236;-70
2022/05/01 00:20:06;;;;;;;10.43;9.57;;;;;;;9.82;79.91;101750.41;5116299;28;20230;-70
2022/05/01 00:22:33;;;;;;;10.40;9.50;;;;;;;9.80;79.90;101748.72;5116459;28;20211;-70
2022/05/01 00:24:59;;;;;;;9.93;9.43;;;;;;;9.79;79.93;101745.25;5116724;28;20176;-70
2022/05/01 00:27:25;;;;;;;9.27;8.63;;;;;;;9.77;79.78;101740.94;5116267;28;20234;-70
2022/05/01 00:29:52;;;;;;;9.73;9.00;;;;;;;9.80;79.71;101744.34;5116477;28;20188;-70
2022/05/01 00:32:19;;;;;;;9.53;9.23;;;;;;;9.80;79.83;101746.13;5116181;28;20200;-70
2022/05/01 00:37:30;;;;;;;10.50;9.97;;;;;;;9.77;79.88;101754.00;5116040;28;20262;-70
2022/05/01 00:39:57;;;;;;;10.67;9.83;;;;;;;9.77;79.97;101748.78;5116352;28;20186;-70
2022/05/01 00:42:23;;;;;;;9.17;8.80;;;;;;;9.80;79.86;101748.72;5116064;28;20654;-70
2022/05/01 00:44:51;;;;;;;9.70;9.07;;;;;;;9.76;80.00;101750.53;5116002;28;20254;-70
2022/05/01 00:47:17;;;;;;;10.73;9.93;;;;;;;9.76;80.09;101745.31;5115860;28;20216;-70
2022/05/01 00:49:43;;;;;;;10.13;9.53;;;;;;;9.76;80.09;101747.91;5115902;28;20221;-70
2022/05/01 00:52:11;;;;;;;11.10;10.30;;;;;;;9.75;80.20;101748.81;5115785;28;20203;-70
2022/05/01 00:54:41;;;;;;;10.47;9.77;;;;;;;9.74;80.43;101749.72;5116039;28;20177;-70
2022/05/01 00:57:08;;;;;;;9.43;9.07;;;;;;;9.66;80.54;101741.19;5115943;28;20213;-70
2022/05/01 00:59:36;;;;;;;9.90;9.50;;;;;;;9.67;80.71;101749.88;5115974;28;20268;-70
2022/05/01 01:02:04;;;;;;;10.63;9.97;;;;;;;9.75;80.33;101743.59;5115206;28;20591;-70
2022/05/01 01:04:31;;;;;;;11.87;10.73;;;;;;;9.68;80.27;101736.78;5115835;28;20188;-70
2022/05/01 01:06:57;;;;;;;10.63;9.37;;;;;;;9.69;80.00;101738.47;5116058;28;20269;-70
2022/05/01 01:09:24;;;;;;;10.30;9.43;;;;;;;9.65;80.17;101739.47;5115790;28;20253;-70
2022/05/01 01:12:53;;;;;;;10.70;10.07;;;;;;;9.67;80.43;101736.81;5115904;28;20188;-70
2022/05/01 01:14:42;;;;;;;10.17;9.77;;;;;;;9.63;80.41;101739.47;5115345;28;20197;-70
2022/05/01 01:17:10;;;;;;;9.43;9.13;;;;;;;9.60;80.69;101736.94;5115275;28;20209;-70
2022/05/01 01:19:36;;;;;;;10.00;9.30;;;;;;;9.58;80.80;101740.47;5115834;28;20244;-70
2022/05/01 01:22:04;;;;;;;10.23;9.57;;;;;;;9.58;80.53;101736.13;5115248;28;20189;-70
2022/05/01 01:24:31;;;;;;;10.40;10.00;;;;;;;9.64;80.59;101740.31;5115196;28;20554;-70
2022/05/01 01:26:58;;;;;;;11.97;11.17;;;;;;;9.68;80.42;101738.53;5115086;28;20221;-70
2022/05/01 01:32:12;;;;;;;10.70;10.00;;;;;;;9.60;80.96;101743.91;5115577;28;20190;-70
2022/05/01 01:34:42;;;;;;;10.50;10.00;;;;;;;9.57;81.10;101739.63;5114987;28;20537;-70
2022/05/01 01:37:11;;;;;;;9.93;9.27;;;;;;;9.57;81.37;101744.84;5114734;28;20268;-70
2022/05/01 01:39:38;;;;;;;10.30;9.77;;;;;;;9.57;81.34;101739.63;5114922;28;20587;-70
2022/05/01 01:42:07;;;;;;;10.03;9.53;;;;;;;9.59;81.56;101742.19;5115037;28;20704;-70
2022/05/01 01:44:37;;;;;;;10.60;10.07;;;;;;;9.61;81.23;101743.88;5114791;28;20175;-70
2022/05/01 01:47:05;;;;;;;9.60;9.13;;;;;;;9.56;81.58;101748.34;5114962;28;20626;-70
2022/05/01 01:49:32;;;;;;;9.77;9.40;;;;;;;9.57;81.28;101749.19;5114993;28;20188;-71
2022/05/01 01:51:59;;;;;;;10.70;10.20;;;;;;;9.54;81.42;101746.66;5114559;28;20184;-70
2022/05/01 01:54:25;;;;;;;9.37;9.07;;;;;;;9.53;81.32;101737.94;5114651;28;20185;-70
2022/05/01 01:56:52;;;;;;;10.77;10.27;;;;;;;9.53;81.27;101745.78;5114497;28;20188;-70
2022/05/01 01:59:18;;;;;;;10.13;9.67;;;;;;;9.53;81.27;101745.78;5115130;28;20197;-70
2022/05/01 02:01:45;;;;;;;10.83;10.23;;;;;;;9.53;81.39;101740.56;5096240;28;20234;-70
2022/05/01 02:04:11;;;;;;;11.20;10.53;;;;;;;9.54;81.40;101744.91;5114732;28;20239;-70
2022/05/01 02:06:38;;;;;;;11.07;10.20;;;;;;;9.53;81.39;101737.94;5114394;28;20179;-70
2022/05/01 02:09:07;;;;;;;9.57;8.97;;;;;;;9.53;81.44;101742.31;5114876;28;20181;-70
2022/05/01 02:11:35;;;;;;;9.97;9.57;;;;;;;9.48;82.01;101738.94;5114311;28;20681;-70
2022/05/01 02:14:02;;;;;;;11.07;10.17;;;;;;;9.45;82.39;101733.78;5113965;28;20605;-70
2022/05/01 02:16:29;;;;;;;10.07;9.67;;;;;;;9.43;82.81;101736.44;5114225;28;20193;-70
2022/05/01 02:18:57;;;;;;;10.10;9.43;;;;;;;9.45;83.00;101739.00;5114121;28;20210;-70
2022/05/01 02:21:35;;;;;;;10.33;9.73;;;;;;;9.44;83.37;101737.28;5114213;28;20179;-70
2022/05/01 02:24:08;;;;;;;9.90;9.10;;;;;;;9.41;83.67;101739.94;5114166;28;20175;-70
2022/05/01 02:26:35;;;;;;;10.80;10.30;;;;;;;9.40;83.60;101731.25;5114303;28;20206;-70
2022/05/01 02:29:05;;;;;;;10.50;9.70;;;;;;;9.37;83.46;101729.56;5114001;28;20192;-70
2022/05/01 02:31:31;;;;;;;10.30;9.60;;;;;;;9.36;83.18;101724.38;5114013;28;20181;-70
2022/05/01 02:33:58;;;;;;;11.00;10.60;;;;;;;9.37;82.84;101731.31;5113894;28;20247;-70
2022/05/01 02:36:24;;;;;;;10.87;10.07;;;;;;;9.37;82.69;101726.09;5114170;28;20670;-70
2022/05/01 02:38:51;;;;;;;11.93;11.10;;;;;;;9.40;82.74;101728.63;5114010;28;20264;-70
2022/05/01 02:41:18;;;;;;;10.80;10.07;;;;;;;9.37;83.03;101721.72;5113877;28;20185;-70
2022/05/01 02:43:45;;;;;;;10.97;10.27;;;;;;;9.36;83.32;101725.22;5114433;28;20167;-70
2022/05/01 02:46:13;;;;;;;10.23;9.73;;;;;;;9.37;83.55;101716.50;5113804;28;20192;-70
2022/05/01 02:48:40;;;;;;;10.73;10.17;;;;;;;9.34;83.76;101718.28;5113722;28;20211;-70
2022/05/01 02:51:06;;;;;;;10.10;9.60;;;;;;;9.35;83.53;101723.47;5114138;28;20184;-70
2022/05/01 02:53:33;;;;;;;10.30;9.77;;;;;;;9.34;83.69;101715.69;5113903;28;20684;-70
2022/05/01 02:56:00;;;;;;;10.47;9.90;;;;;;;9.34;83.64;101719.16;5113695;28;20240;-70
2022/05/01 02:58:30;;;;;;;10.67;9.97;;;;;;;9.30;83.58;101714.91;5113625;28;20216;-70
2022/05/01 03:00:57;;;;;;;10.27;9.77;;;;;;;9.28;83.95;101723.63;5113972;28;20230;-70
2022/05/01 03:03:24;;;;;;;10.53;10.03;;;;;;;9.26;83.92;101714.97;5113622;28;20203;-70
2022/05/01 03:05:52;;;;;;;9.50;9.10;;;;;;;9.23;84.10;101715.06;5113885;28;20584;-70
2022/05/01 03:08:20;;;;;;;10.27;9.57;;;;;;;9.23;84.04;101718.53;5113553;28;20251;-70
2022/05/01 03:10:47;;;;;;;10.93;10.23;;;;;;;9.21;84.34;101717.66;5113543;28;20240;-70
2022/05/01 03:13:14;;;;;;;11.60;10.77;;;;;;;9.21;84.26;101715.06;5113476;28;20260;-70
2022/05/01 03:15:40;;;;;;;11.33;10.83;;;;;;;9.19;84.42;101710.75;5113714;28;20237;-70
2022/05/01 03:23:36;;;;;;;9.83;9.43;;;;;;;9.16;85.15;101705.59;5114130;28;20219;-71
2022/05/01 03:26:04;;;;;;;11.23;10.67;;;;;;;9.12;85.45;101701.31;5116010;28;20190;-71
2022/05/01 03:28:31;;;;;;;10.10;9.43;;;;;;;9.04;85.64;101702.31;5117426;28;20235;-71
2022/05/01 03:30:57;;;;;;;11.13;10.30;;;;;;;9.00;86.03;101700.69;5117436;28;20589;-71
2022/05/01 03:33:25;;;;;;;12.50;11.67;;;;;;;9.03;85.69;101705.84;5117572;28;20260;-71
2022/05/01 03:35:51;;;;;;;10.63;10.10;;;;;;;8.96;86.00;101700.75;5117612;28;20657;-71
2022/05/01 03:38:18;;;;;;;10.77;9.83;;;;;;;8.93;85.88;101699.06;5117108;28;20270;-71
2022/05/01 03:40:47;;;;;;;10.87;10.17;;;;;;;8.87;86.15;101696.56;5117245;28;20190;-71
2022/05/01 03:43:17;;;;;;;10.60;10.00;;;;;;;8.86;86.31;101691.34;5117187;28;20239;-71
2022/05/01 03:45:44;;;;;;;12.03;11.23;;;;;;;8.88;86.61;101700.03;5117191;28;20179;-71
2022/05/01 03:48:11;;;;;;;11.30;10.60;;;;;;;8.87;87.09;101698.31;5117034;28;20215;-71
2022/05/01 03:50:38;;;;;;;9.97;9.43;;;;;;;8.83;87.38;101705.34;5117058;28;20181;-71
2022/05/01 03:53:06;;;;;;;10.93;10.37;;;;;;;8.80;87.53;101703.66;5116924;28;20206;-71
2022/05/01 03:55:33;;;;;;;11.27;10.67;;;;;;;8.77;87.59;101708.91;5117257;28;20631;-70
2022/05/01 03:58:00;;;;;;;11.20;10.60;;;;;;;8.72;87.29;101696.84;5116871;28;20272;-70
2022/05/01 04:00:27;;;;;;;12.07;11.17;;;;;;;8.70;87.28;101706.44;5116874;28;20182;-71
2022/05/01 04:02:54;;;;;;;10.57;9.77;;;;;;;8.66;87.75;101710.88;5116870;28;20179;-71
2022/05/01 04:05:20;;;;;;;10.60;10.03;;;;;;;8.65;87.89;101706.53;5117010;28;20553;-71
2022/05/01 04:07:47;;;;;;;11.70;10.83;;;;;;;8.65;87.89;101703.06;5116683;28;20210;-70
2022/05/01 04:10:13;;;;;;;11.27;10.53;;;;;;;8.65;88.23;101708.28;5117037;28;20200;-70
2022/05/01 04:12:42;;;;;;;10.23;9.67;;;;;;;8.63;88.81;101704.81;5116991;28;20182;-70
2022/05/01 04:15:11;;;;;;;11.13;10.20;;;;;;;8.62;89.13;101703.09;5116915;28;20231;-70
2022/05/01 04:17:39;;;;;;;11.37;10.57;;;;;;;8.61;89.40;101701.38;5117075;28;20262;-71
2022/05/01 04:20:13;;;;;;;9.87;9.27;;;;;;;8.61;89.44;101711.84;5098174;28;20623;-71
2022/05/01 04:22:45;;;;;;;11.57;10.67;;;;;;;8.61;89.83;101704.00;5116486;28;20177;-71
2022/05/01 04:25:15;;;;;;;12.03;11.20;;;;;;;8.58;89.47;101701.47;5116445;28;20177;-71
2022/05/01 04:27:47;;;;;;;11.17;10.43;;;;;;;8.57;89.56;101705.78;5116447;28;20214;-70
2022/05/01 04:30:15;;;;;;;10.87;10.27;;;;;;;8.53;nan;101712.81;5116598;28;20551;-70
2022/05/01 04:32:49;;;;;;;10.97;10.03;;;;;;;8.49;89.73;101703.31;5116178;28;20221;-70
2022/05/01 04:35:43;;;;;;;11.70;10.73;;;;;;;8.48;89.97;101711.16;5116497;28;20620;-70
2022/05/01 04:38:12;;;;;;;11.63;10.77;;;;;;;8.46;90.09;101712.94;5104913;28;20232;-70
2022/05/01 04:40:41;;;;;;;11.70;10.90;;;;;;;8.46;90.06;101713.81;5116080;28;20260;-70
2022/05/01 04:43:10;;;;;;;11.90;10.90;;;;;;;8.48;89.95;101706.81;5116295;28;20181;-70
2022/05/01 04:45:40;;;;;;;10.23;9.83;;;;;;;8.50;89.98;101707.66;5116004;28;20189;-70
2022/05/01 04:48:08;;;;;;;10.60;9.87;;;;;;;8.57;90.37;101705.78;5116173;28;20216;-70
2022/05/01 04:50:35;;;;;;;11.97;11.10;;;;;;;8.60;90.60;101710.13;5116216;28;20242;-70
2022/05/01 04:53:06;;;;;;;11.73;11.03;;;;;;;8.62;90.67;101710.94;5115793;28;20177;-70
2022/05/01 04:55:33;;;;;;;12.20;11.37;;;;;;;8.59;90.97;101705.78;5116149;28;20166;-70
2022/05/01 04:58:00;;;;;;;10.90;10.20;;;;;;;8.66;90.53;101704.78;5115960;28;20244;-70
2022/05/01 05:00:27;;;;;;;10.80;10.27;;;;;;;8.69;90.16;101709.94;5115711;28;20181;-70
2022/05/01 05:02:56;;;;;;;12.23;11.23;;;;;;;8.74;89.49;101715.97;5115690;28;20243;-70
2022/05/01 05:05:26;;;;;;;14.73;10.33;;;;;;;8.71;89.31;101716.00;5116465;28;20645;-70
2022/05/01 05:07:53;;;;;;;12.03;11.10;;;;;;;8.79;89.09;101714.13;5115778;28;20262;-70
2022/05/01 05:10:20;;;;;;;10.67;10.13;;;;;;;8.75;89.32;101710.69;5115503;28;20247;-70
2022/05/01 05:12:48;;;;;;;12.43;11.50;;;;;;;8.89;89.12;101722.66;5115514;28;20181;-70
2022/05/01 05:15:20;;;;;;;12.23;11.37;;;;;;;8.88;88.16;101720.94;5115979;28;20189;-70
2022/05/01 05:17:47;;;;;;;11.50;10.60;;;;;;;8.86;87.01;101718.34;5115452;28;20265;-70
2022/05/01 05:20:13;;;;;;;11.80;10.97;;;;;;;8.79;87.22;101719.34;5115662;28;20177;-70
2022/05/01 05:22:41;;;;;;;11.17;10.47;;;;;;;8.92;86.39;101718.22;5115843;28;20574;-70
2022/05/01 05:25:10;;;;;;;10.17;9.60;;;;;;;8.97;86.50;101721.63;5115795;28;20527;-70
2022/05/01 05:27:37;;;;;;;10.03;9.43;;;;;;;9.02;85.50;101725.00;5115122;28;20255;-70
2022/05/01 05:30:04;;;;;;;9.93;9.47;;;;;;;9.04;84.38;101718.00;5115670;28;20585;-70
2022/05/01 05:32:34;;;;;;;10.00;9.30;;;;;;;9.18;83.24;101724.72;5115005;28;20180;-70
2022/05/01 05:35:01;;;;;;;10.27;9.63;;;;;;;9.19;84.65;101716.84;5115246;28;20202;-70
2022/05/01 05:37:28;;;;;;;10.80;9.93;;;;;;;9.37;82.92;101728.72;5115039;28;20221;-70
2022/05/01 05:39:54;;;;;;;8.60;8.40;;;;;;;9.40;83.15;101730.38;5114931;28;20256;-70
2022/05/01 05:42:20;;;;;;;10.43;9.73;;;;;;;9.50;81.77;101729.28;5115163;28;20178;-70
2022/05/01 05:44:47;;;;;;;8.70;8.50;;;;;;;9.61;81.32;101735.19;5115083;28;20187;-70
2022/05/01 05:47:14;;;;;;;9.43;8.97;;;;;;;9.74;79.23;101741.88;5114769;28;20242;-70
2022/05/01 05:49:40;;;;;;;7.90;7.60;;;;;;;9.76;79.42;101741.84;5114716;28;20183;-70
2022/05/01 05:52:07;;;;;;;10.00;9.17;;;;;;;9.77;79.34;101740.94;5114964;28;20262;-70
2022/05/01 05:54:34;;;;;;;8.07;7.83;;;;;;;9.83;78.62;101746.03;5115108;28;20671;-70
2022/05/01 05:57:00;;;;;;;9.03;7.90;;;;;;;9.89;78.78;101745.91;5114572;28;20269;-70
2022/05/01 05:59:27;;;;;;;9.03;8.70;;;;;;;10.08;77.90;101749.84;5114583;28;20650;-70
2022/05/01 06:01:53;;;;;;;9.57;8.70;;;;;;;10.16;76.58;101747.91;5114858;28;20222;-70
2022/05/01 06:04:20;;;;;;;8.50;8.10;;;;;;;10.23;77.48;101745.19;5114465;28;20708;-70
2022/05/01 06:06:46;;;;;;;8.17;7.87;;;;;;;10.32;76.05;101739.72;5114363;28;20187;-70
2022/05/01 06:09:13;;;;;;;8.27;8.07;;;;;;;10.31;75.90;101751.09;5114419;28;20552;-71
2022/05/01 06:11:39;;;;;;;8.17;7.87;;;;;;;10.39;74.89;101746.53;5114591;28;20191;-71
2022/05/01 06:14:06;;;;;;;8.77;8.47;;;;;;;10.29;74.65;101752.91;5114222;28;20200;-71
2022/05/01 06:16:32;;;;;;;8.80;8.37;;;;;;;10.28;76.46;101751.16;5114281;28;20189;-71
2022/05/01 06:18:59;;;;;;;9.40;8.90;;;;;;;10.28;76.19;101749.41;5114078;28;20215;-70
2022/05/01 06:21:26;;;;;;;9.97;7.87;;;;;;;10.44;74.94;101756.00;5114138;28;20229;-70
2022/05/01 06:23:53;;;;;;;9.13;8.63;;;;;;;10.43;76.08;101748.19;5114388;28;20237;-70
2022/05/01 06:26:19;;;;;;;8.53;8.13;;;;;;;10.51;76.06;101750.63;5113954;28;20185;-70
2022/05/01 06:28:51;;;;;;;7.80;7.43;;;;;;;10.51;73.47;101754.09;5114582;28;20210;-70
2022/05/01 06:31:18;;;;;;;7.20;7.00;;;;;;;10.51;73.60;101755.88;5114014;28;20245;-70
2022/05/01 06:33:46;;;;;;;7.30;6.93;;;;;;;10.56;75.24;101751.34;5114197;28;20203;-71
2022/05/01 06:36:15;;;;;;;8.13;7.50;;;;;;;10.63;73.96;101756.41;5114498;28;20229;-72
2022/05/01 06:38:43;;;;;;;8.40;7.93;;;;;;;10.67;73.30;101760.69;5113906;28;20224;-71
2022/05/01 06:41:09;;;;;;;8.40;8.00;;;;;;;10.75;72.63;101760.47;5113899;28;20237;-71
2022/05/01 06:43:36;;;;;;;8.33;7.83;;;;;;;10.71;71.70;101750.97;5113899;28;20184;-71
2022/05/01 06:46:02;;;;;;;7.77;7.57;;;;;;;10.65;72.75;101756.38;5113832;28;20196;-71
2022/05/01 06:48:29;;;;;;;8.00;7.70;;;;;;;10.63;73.40;101752.94;5114266;28;20262;-71
2022/05/01 06:50:55;;;;;;;8.13;7.83;;;;;;;10.67;73.83;101755.44;5113795;28;20184;-71
2022/05/01 06:53:22;;;;;;;8.50;8.00;;;;;;;10.65;74.39;101762.50;5113964;28;20724;-71
2022/05/01 06:55:49;;;;;;;9.27;8.30;;;;;;;10.58;74.08;101755.69;5113682;28;20246;-71
2022/05/01 06:58:17;;;;;;;9.27;8.43;;;;;;;10.36;73.60;101759.72;5113630;28;20216;-71
2022/05/01 07:00:43;;;;;;;8.50;8.17;;;;;;;10.38;74.24;101755.28;5117456;28;20185;-71
2022/05/01 07:03:09;;;;;;;9.23;8.60;;;;;;;10.45;75.41;101757.72;5120983;28;20245;-71
2022/05/01 07:05:36;;;;;;;9.73;8.77;;;;;;;10.45;74.93;101752.50;5120485;28;20188;-71
2022/05/01 07:08:03;;;;;;;9.97;9.03;;;;;;;10.44;74.69;101760.38;5120412;28;20269;-71
2022/05/01 07:10:29;;;;;;;9.23;8.60;;;;;;;10.38;74.94;101757.91;5102043;28;20197;-71
2022/05/01 07:12:56;;;;;;;8.37;7.77;;;;;;;10.32;74.86;101766.75;5120394;28;20185;-71
2022/05/01 07:15:22;;;;;;;9.47;9.07;;;;;;;10.29;76.31;101760.75;5120664;28;20234;-70
2022/05/01 07:17:49;;;;;;;11.47;8.40;;;;;;;10.46;75.72;101764.69;5120582;28;20619;-69
2022/05/01 07:20:15;;;;;;;9.33;8.63;;;;;;;10.49;75.60;101761.13;5120217;28;20185;-69
2022/05/01 07:22:44;;;;;;;8.60;8.30;;;;;;;10.58;74.68;101768.78;5120839;28;20646;-69
2022/05/01 07:25:11;;;;;;;8.47;8.03;;;;;;;10.63;74.84;101760.78;5120441;28;20207;-69
2022/05/01 07:27:37;;;;;;;12.77;9.00;;;;;;;10.71;74.97;101762.31;5120347;28;20211;-69
2022/05/01 07:30:05;;;;;;;8.80;8.10;;;;;;;10.78;74.41;101759.53;5120166;28;20193;-69
2022/05/01 07:32:31;;;;;;;8.43;8.03;;;;;;;10.74;74.38;101761.38;5120167;28;20631;-69
2022/05/01 07:34:57;;;;;;;8.83;8.27;;;;;;;10.69;73.87;101771.97;5120420;28;20201;-69
2022/05/01 07:37:26;;;;;;;8.83;8.37;;;;;;;10.64;73.85;101768.59;5120475;27;20610;-70
2022/05/01 07:39:54;;;;;;;8.23;7.87;;;;;;;10.68;74.08;101764.16;5120482;28;20684;-69
2022/05/01 07:42:21;;;;;;;8.00;7.80;;;;;;;10.81;74.60;101769.97;5120420;28;20234;-69
2022/05/01 07:44:49;;;;;;;8.80;8.37;;;;;;;10.81;73.68;101767.34;5120064;28;20587;-69
2022/05/01 07:47:15;;;;;;;14.57;8.97;;;;;;;10.73;73.94;101772.78;5120062;28;20205;-69
2022/05/01 07:49:42;;;;;;;8.63;8.33;;;;;;;10.69;74.22;101768.50;5120047;28;20182;-69
2022/05/01 07:52:09;;;;;;;10.87;9.60;;;;;;;10.83;74.31;101770.78;5120066;28;20227;-69
2022/05/01 07:54:35;;;;;;;10.57;9.57;;;;;;;10.83;73.15;101769.00;5120030;28;20205;-69
2022/05/01 07:57:02;;;;;;;9.23;8.57;;;;;;;10.79;74.11;101761.25;5120380;28;20265;-69
2022/05/01 07:59:29;;;;;;;9.10;8.27;;;;;;;10.83;74.63;101755.06;5120243;28;20189;-69
2022/05/01 08:01:59;;;;;;;9.33;8.73;;;;;;;10.87;73.35;101751.47;5119930;28;20173;-69
2022/05/01 08:04:29;;;;;;;9.63;9.03;;;;;;;10.90;73.46;101754.00;5120452;28;20201;-69
2022/05/01 08:07:00;;;;;;;10.50;9.40;;;;;;;10.84;73.57;101754.16;5119853;28;20205;-69
2022/05/01 08:09:28;;;;;;;8.63;8.33;;;;;;;10.96;73.01;101749.47;5120475;28;20185;-69
2022/05/01 08:11:55;;;;;;;9.47;8.43;;;;;;;11.08;73.18;101756.16;5117708;28;20195;-69
2022/05/01 08:14:22;;;;;;;10.67;9.90;;;;;;;11.07;75.16;101751.78;5116808;28;20193;-69
2022/05/01 08:16:49;;;;;;;9.80;9.30;;;;;;;11.27;72.60;101748.63;5116459;28;20720;-69
2022/05/01 08:22:02;;;;;;;8.77;8.47;;;;;;;11.41;73.61;101756.09;5116554;28;20201;-69
2022/05/01 08:24:29;;;;;;;9.00;8.60;;;;;;;11.55;74.36;101748.72;5098166;28;20192;-69
2022/05/01 08:26:57;;;;;;;11.13;10.07;;;;;;;11.65;71.67;101760.66;5098293;28;20209;-69
2022/05/01 08:29:24;;;;;;;11.30;10.30;;;;;;;11.70;72.54;101757.91;5116319;28;20234;-69
2022/05/01 08:31:51;;;;;;;9.03;8.67;;;;;;;11.79;72.10;101757.66;5097939;28;20217;-69
2022/05/01 08:34:17;;;;;;;10.57;10.00;;;;;;;11.92;71.51;101758.16;5116153;28;20200;-69
2022/05/01 08:36:45;;;;;;;9.93;9.30;;;;;;;11.90;71.90;101754.72;5116124;28;20268;-69
2022/05/01 08:39:12;;;;;;;8.97;8.57;;;;;;;12.07;72.97;101747.19;5116023;28;20647;-69
2022/05/01 08:41:38;;;;;;;8.80;8.50;;;;;;;12.22;71.56;101751.13;5116046;28;20659;-69
2022/05/01 08:44:05;;;;;;;10.73;10.20;;;;;;;12.31;71.38;101749.06;5116010;28;20238;-69
2022/05/01 08:47:17;;;;;;;9.03;8.63;;;;;;;12.43;71.70;101739.03;5115794;28;20215;-69
2022/05/01 08:49:45;;;;;;;10.43;9.90;;;;;;;12.58;70.56;101743.81;5014042;28;20198;-69
2022/05/01 08:52:13;;;;;;;10.23;9.60;;;;;;;12.64;69.99;101747.09;5103472;28;20205;-69
2022/05/01 08:54:39;;;;;;;15.33;9.47;;;;;;;12.64;69.77;101744.47;5116283;28;20272;-69
2022/05/01 08:57:06;;;;;;;9.73;9.10;;;;;;;12.68;69.95;101755.72;5115739;28;20212;-69
2022/05/01 08:59:34;;;;;;;9.03;8.63;;;;;;;12.73;69.02;101751.19;5115941;28;20181;-69
2022/05/01 09:02:00;;;;;;;10.10;9.00;;;;;;;12.83;68.05;101744.69;5115692;28;20236;-69
2022/05/01 09:04:28;;;;;;;7.97;7.87;;;;;;;12.73;69.62;101748.56;5115673;28;20304;-70
2022/05/01 09:06:55;;;;;;;11.27;9.30;;;;;;;12.76;67.47;101755.47;5116179;28;20211;-69
2022/05/01 09:09:23;;;;;;;8.37;8.17;;;;;;;12.94;67.54;101754.84;5115576;28;20174;-69
2022/05/01 09:14:38;;;;;;;8.33;8.03;;;;;;;12.98;67.71;101752.97;5115688;28;20193;-69
2022/05/01 09:17:19;;;;;;;7.77;7.60;;;;;;;13.04;67.89;101753.63;5115346;28;20712;-69
2022/05/01 09:19:49;;;;;;;10.30;9.37;;;;;;;13.13;65.90;101747.16;5115956;28;20178;-69
2022/05/01 09:22:18;;;;;;;8.80;8.50;;;;;;;13.05;66.47;101751.84;5115828;28;20641;-69
2022/05/01 09:24:52;;;;;;;9.53;8.97;;;;;;;13.09;67.13;101754.31;5114878;28;20188;-69
2022/05/01 09:27:27;;;;;;;10.43;9.87;;;;;;;13.06;66.78;101750.91;5115406;28;20201;-69
2022/05/01 09:30:08;;;;;;;10.30;9.67;;;;;;;13.01;65.51;101752.88;5115782;28;20172;-69
2022/05/01 09:32:37;;;;;;;9.30;8.87;;;;;;;13.06;65.63;101756.19;5115856;28;20176;-69
2022/05/01 09:35:10;;;;;;;9.03;8.50;;;;;;;13.13;65.26;101752.44;5114989;28;20758;-69
2022/05/01 09:37:37;;;;;;;10.53;9.80;;;;;;;13.07;64.83;101757.91;5114974;28;20235;-70
2022/05/01 09:40:04;;;;;;;9.97;9.47;;;;;;;13.07;65.19;101747.38;5115411;28;20590;-69
2022/05/01 09:42:34;;;;;;;10.20;9.27;;;;;;;13.02;65.29;101754.59;5114956;28;20210;-69
2022/05/01 09:45:05;;;;;;;10.27;9.60;;;;;;;13.04;64.91;101747.50;5114876;28;20253;-69
2022/05/01 09:47:40;;;;;;;10.37;9.80;;;;;;;13.04;65.09;101748.34;5114616;28;20207;-69
2022/05/01 09:50:08;;;;;;;10.63;10.00;;;;;;;12.98;66.86;101747.72;5115375;28;20222;-69
2022/05/01 09:52:55;;;;;;;10.03;9.40;;;;;;;12.93;67.86;101748.75;5115378;28;20317;-69
2022/05/01 09:55:22;;;;;;;10.20;9.70;;;;;;;12.89;68.43;101743.63;5114855;28;20201;-69
2022/05/01 09:57:49;;;;;;;10.13;9.63;;;;;;;12.83;66.73;101744.69;5114509;28;20208;-70
2022/05/01 10:00:37;;;;;;;9.43;8.70;;;;;;;12.81;66.98;101746.53;5114582;28;20226;-69
2022/05/01 10:03:24;;;;;;;9.77;9.07;;;;;;;12.72;65.48;101751.25;5114853;28;20177;-69
2022/05/01 10:05:52;;;;;;;10.50;9.90;;;;;;;12.70;64.17;101745.16;5114665;28;20197;-69
2022/05/01 10:08:20;;;;;;;10.40;9.33;;;;;;;12.65;63.44;101745.34;5115449;28;20598;-69
2022/05/01 10:10:49;;;;;;;11.80;10.97;;;;;;;12.64;64.21;101740.97;5114931;28;20202;-69
2022/05/01 10:13:16;;;;;;;11.07;10.53;;;;;;;12.70;63.48;101743.38;5114495;28;20196;-69
2022/05/01 10:16:04;;;;;;;9.73;9.17;;;;;;;12.71;63.90;101734.59;5114178;28;20670;-69
2022/05/01 10:18:31;;;;;;;9.07;8.60;;;;;;;12.71;64.52;101737.22;5114435;28;20209;-69
2022/05/01 10:20:58;;;;;;;9.33;8.83;;;;;;;12.75;64.18;101738.00;5114233;28;20220;-70
2022/05/01 10:23:25;;;;;;;8.93;8.47;;;;;;;12.77;63.42;101742.28;5114127;28;20183;-70
2022/05/01 10:25:59;;;;;;;9.60;9.13;;;;;;;12.75;64.60;101730.97;5114127;28;20242;-69
2022/05/01 10:29:03;;;;;;;9.13;8.63;;;;;;;12.86;63.70;101731.47;5114510;28;20619;-69
2022/05/01 10:34:53;;;;;;;9.70;9.10;;;;;;;12.76;64.61;101730.03;5113644;28;20254;-69
2022/05/01 10:37:32;;;;;;;10.03;9.37;;;;;;;12.78;64.84;101730.00;5113788;28;20262;-69
2022/05/01 10:40:00;;;;;;;9.93;9.17;;;;;;;12.76;63.88;101719.53;5113945;28;20223;-68
2022/05/01 10:42:43;;;;;;;9.33;9.03;;;;;;;12.83;64.77;101718.41;5114511;28;20597;-69
2022/05/01 10:45:21;;;;;;;8.97;8.67;;;;;;;12.82;65.38;101718.47;5113817;28;20238;-69
2022/05/01 10:47:53;;;;;;;9.03;8.67;;;;;;;12.75;66.08;101715.19;5092992;28;20215;-70
2022/05/01 10:50:25;;;;;;;8.47;8.00;;;;;;;12.79;66.79;101719.44;5114035;28;20178;-70
2022/05/01 10:53:08;;;;;;;10.67;9.90;;;;;;;12.78;67.53;101717.69;5112875;28;20181;-69
2022/05/01 10:55:52;;;;;;;8.37;8.00;;;;;;;12.83;66.74;101717.56;5114208;28;20242;-69
2022/05/01 10:58:27;;;;;;;9.83;8.97;;;;;;;12.92;63.92;101704.94;5112627;28;20215;-69
2022/05/01 11:00:56;;;;;;;9.10;8.70;;;;;;;12.96;63.25;101718.84;5113295;28;20583;-69
2022/05/01 11:03:27;;;;;;;8.03;7.70;;;;;;;13.07;62.62;101705.31;5112574;28;20181;-69
2022/05/01 11:06:08;;;;;;;7.77;7.57;;;;;;;13.07;63.00;101702.69;5112661;28;20249;-70
2022/05/01 11:08:42;;;;;;;16.30;14.70;;;;;;;13.13;63.48;101697.19;5111406;28;20216;-69
2022/05/01 11:11:10;;;;;;;19.37;17.30;;;;;;;13.27;63.35;101691.47;5113726;28;20197;-69
2022/05/01 11:13:39;;;;;;;30.30;23.10;;;;;;;13.40;65.15;101692.75;5113216;28;20549;-69
2022/05/01 11:16:10;;;;;;;10.13;9.50;;;;;;;13.41;63.27;101694.44;5093711;28;20205;-70
2022/05/01 11:18:42;;;;;;;10.77;10.07;;;;;;;13.46;63.20;101688.13;5111743;28;20682;-69
2022/05/01 11:21:24;;;;;;;9.07;8.73;;;;;;;13.59;61.34;101692.91;5113477;28;20220;-69
2022/05/01 11:24:00;;;;;;;9.73;9.13;;;;;;;13.65;60.21;101693.53;5111665;28;20188;-70
2022/05/01 11:26:27;;;;;;;9.10;8.60;;;;;;;13.68;66.17;101682.03;5111381;28;20602;-69
2022/05/01 11:29:06;;;;;;;9.17;8.87;;;;;;;13.59;62.64;101683.25;5113355;28;20265;-69
2022/05/01 11:31:36;;;;;;;9.73;9.30;;;;;;;13.59;62.55;101682.38;5113971;28;20238;-69
2022/05/01 11:34:24;;;;;;;10.80;10.13;;;;;;;13.68;64.00;101679.41;5102196;28;20197;-71
2022/05/01 11:37:01;;;;;;;12.67;9.43;;;;;;;13.59;69.57;101672.72;5094738;28;20647;-70
2022/05/01 11:39:46;;;;;;;9.30;8.80;;;;;;;13.55;65.93;101676.38;5112468;28;20220;-69
2022/05/01 11:42:29;;;;;;;10.00;9.27;;;;;;;13.52;67.35;101673.88;5113567;28;20527;-69
2022/05/01 11:44:58;;;;;;;10.43;9.53;;;;;;;13.61;66.68;101662.97;5111790;28;20238;-69
2022/05/01 11:47:31;;;;;;;11.60;10.50;;;;;;;13.70;68.13;101659.97;5115207;28;20253;-69
2022/05/01 11:49:57;;;;;;;11.13;10.47;;;;;;;13.72;67.73;101652.06;5115609;28;20238;-70